createdAt,value
2019-02-06T00:02:06.863Z,-3.56
2019-02-06T00:04:38.590Z,-3.63
2019-02-06T00:07:10.376Z,-3.38
2019-02-06T00:09:42.258Z,-3.27
2019-02-06T00:12:14.135Z,-3.15
2019-02-06T00:14:46.454Z,-3.05
2019-02-06T00:17:18.197Z,-3.15
2019-02-06T00:19:49.950Z,-3.33
2019-02-06T00:22:21.672Z,-3.43
2019-02-06T00:24:53.467Z,-3.42
2019-02-06T00:27:25.554Z,-3.42
2019-02-06T00:29:57.272Z,-3.37
2019-02-06T00:32:28.989Z,-3.23
2019-02-06T00:35:00.709Z,-3.14
2019-02-06T00:37:33.369Z,-3.19
2019-02-06T00:40:06.480Z,-3.23
2019-02-06T00:42:38.367Z,-3.51
2019-02-06T00:45:10.601Z,-3.29
2019-02-06T00:47:42.473Z,-3.49
2019-02-06T00:50:15.231Z,-3.68
2019-02-06T00:52:47.105Z,-3.83
2019-02-06T00:55:18.983Z,-3.83
2019-02-06T00:57:50.788Z,-3.52
2019-02-06T01:00:23.272Z,-3.49
2019-02-06T01:02:55.311Z,-3.55
2019-02-06T01:05:38.080Z,-3.59
2019-02-06T01:08:00.759Z,-3.65
2019-02-06T01:10:32.960Z,-3.87
2019-02-06T01:13:05.041Z,-3.93
2019-02-06T01:15:36.922Z,-3.95
2019-02-06T01:18:09.043Z,-3.88
2019-02-06T01:20:40.841Z,-3.92
2019-02-06T01:23:12.738Z,-3.79
2019-02-06T01:25:44.544Z,-3.83
2019-02-06T01:28:16.441Z,-3.85
2019-02-06T01:30:54.098Z,-3.74
2019-02-06T01:33:25.972Z,-3.69
2019-02-06T01:35:57.843Z,-3.70
2019-02-06T01:38:29.655Z,-3.55
2019-02-06T01:41:01.433Z,-3.56
2019-02-06T01:43:33.296Z,-3.75
2019-02-06T01:46:05.369Z,-3.79
2019-02-06T01:48:37.159Z,-3.92
2019-02-06T01:51:08.960Z,-3.95
2019-02-06T01:53:40.810Z,-4.03
2019-02-06T01:56:12.548Z,-3.85
2019-02-06T01:58:44.437Z,-3.83
2019-02-06T02:01:16.237Z,-4.04
2019-02-06T02:03:48.098Z,-4.08
2019-02-06T02:06:20.042Z,-4.20
2019-02-06T02:09:01.523Z,-4.25
2019-02-06T02:11:34.437Z,-4.14
2019-02-06T02:14:06.958Z,-4.06
2019-02-06T02:16:39.164Z,-3.99
2019-02-06T02:19:12.232Z,-4.00
2019-02-06T02:21:44.229Z,-4.02
2019-02-06T02:24:16.166Z,-4.33
2019-02-06T02:26:48.145Z,-4.16
2019-02-06T02:29:20.070Z,-4.21
2019-02-06T02:31:52.287Z,-4.26
2019-02-06T02:34:24.213Z,-4.08
2019-02-06T02:36:56.083Z,-4.14
2019-02-06T02:39:28.027Z,-4.17
2019-02-06T02:41:59.967Z,-4.20
2019-02-06T02:44:31.942Z,-4.25
2019-02-06T02:47:04.084Z,-4.37
2019-02-06T02:49:36.276Z,-4.48
2019-02-06T02:52:09.178Z,-4.60
2019-02-06T02:54:41.526Z,-4.68
2019-02-06T02:57:13.409Z,-4.68
2019-02-06T02:59:45.345Z,-4.44
2019-02-06T03:02:35.530Z,-4.51
2019-02-06T03:05:12.769Z,-4.56
2019-02-06T03:07:44.696Z,-4.57
2019-02-06T03:10:16.830Z,-4.67
2019-02-06T03:12:48.838Z,-4.77
2019-02-06T03:15:20.730Z,-4.77
2019-02-06T03:17:52.519Z,-4.80
2019-02-06T03:20:24.395Z,-4.85
2019-02-06T03:22:56.109Z,-4.87
2019-02-06T03:25:27.908Z,-4.74
2019-02-06T03:28:00.172Z,-4.61
2019-02-06T03:30:32.110Z,-4.46
2019-02-06T03:33:03.974Z,-4.53
2019-02-06T03:35:35.764Z,-4.57
2019-02-06T03:38:07.688Z,-4.55
2019-02-06T03:40:39.720Z,-4.60
2019-02-06T03:43:11.745Z,-4.66
2019-02-06T03:45:43.689Z,-4.68
2019-02-06T03:48:15.652Z,-4.71
2019-02-06T03:50:47.619Z,-4.64
2019-02-06T03:53:19.558Z,-4.40
2019-02-06T03:55:51.602Z,-4.50
2019-02-06T03:58:23.469Z,-4.57
2019-02-06T04:00:55.349Z,-4.68
2019-02-06T04:03:27.464Z,-4.66
2019-02-06T04:05:59.426Z,-4.61
2019-02-06T04:08:31.466Z,-4.67
2019-02-06T04:11:03.474Z,-4.70
2019-02-06T04:13:35.679Z,-4.61
2019-02-06T04:16:07.630Z,-4.62
2019-02-06T04:18:39.710Z,-4.70
2019-02-06T04:21:12.155Z,-4.73
2019-02-06T04:23:44.038Z,-4.68
2019-02-06T04:26:16.212Z,-4.66
2019-02-06T04:28:48.130Z,-4.61
2019-02-06T04:31:20.383Z,-4.73
2019-02-06T04:33:52.241Z,-4.73
2019-02-06T04:36:24.203Z,-4.75
2019-02-06T04:38:56.067Z,-4.86
2019-02-06T04:41:27.995Z,-4.82
2019-02-06T04:44:00.138Z,-4.77
2019-02-06T04:46:31.985Z,-4.73
2019-02-06T04:49:04.536Z,-4.78
2019-02-06T04:51:36.390Z,-4.79
2019-02-06T04:54:08.325Z,-4.85
2019-02-06T04:56:40.370Z,-4.81
2019-02-06T04:59:12.296Z,-4.87
2019-02-06T05:01:44.237Z,-4.85
2019-02-06T05:04:16.087Z,-4.87
2019-02-06T05:06:48.048Z,-4.87
2019-02-06T05:09:20.188Z,-4.75
2019-02-06T05:11:52.380Z,-4.73
2019-02-06T05:14:24.322Z,-4.70
2019-02-06T05:16:56.504Z,-4.59
2019-02-06T05:19:28.462Z,-4.53
2019-02-06T05:22:00.842Z,-4.68
2019-02-06T05:24:32.973Z,-4.74
2019-02-06T05:27:04.939Z,-4.65
2019-02-06T05:29:36.865Z,-4.66
2019-02-06T05:32:08.747Z,-4.80
2019-02-06T05:34:40.997Z,-4.90
2019-02-06T05:37:13.257Z,-4.93
2019-02-06T05:39:45.469Z,-4.92
2019-02-06T05:42:17.501Z,-4.93
2019-02-06T05:44:49.354Z,-4.92
2019-02-06T05:47:21.922Z,-4.78
2019-02-06T05:49:53.897Z,-4.85
2019-02-06T05:52:26.048Z,-4.62
2019-02-06T05:54:58.990Z,-4.58
2019-02-06T05:57:31.436Z,-4.72
2019-02-06T06:00:04.116Z,-4.65
2019-02-06T06:02:36.447Z,-4.58
2019-02-06T06:05:08.649Z,-4.74
2019-02-06T06:07:45.186Z,-4.75
2019-02-06T06:10:16.027Z,-4.77
2019-02-06T06:12:48.300Z,-4.66
2019-02-06T06:15:20.578Z,-4.75
2019-02-06T06:17:52.662Z,-4.50
2019-02-06T06:20:24.745Z,-4.70
2019-02-06T06:22:57.018Z,-4.72
2019-02-06T06:25:29.305Z,-4.75
2019-02-06T06:28:01.273Z,-4.77
2019-02-06T06:30:33.203Z,-4.68
2019-02-06T06:33:05.397Z,-4.51
2019-02-06T06:35:37.388Z,-4.67
2019-02-06T06:38:09.515Z,-4.71
2019-02-06T06:40:41.756Z,-4.72
2019-02-06T06:43:16.315Z,-4.73
2019-02-06T06:45:47.553Z,-4.80
2019-02-06T06:48:19.529Z,-4.82
2019-02-06T06:50:51.880Z,-4.87
2019-02-06T06:53:23.955Z,-4.67
2019-02-06T06:55:56.162Z,-4.71
2019-02-06T06:58:28.266Z,-4.63
2019-02-06T07:01:00.221Z,-4.67
2019-02-06T07:03:32.390Z,-4.67
2019-02-06T07:06:04.647Z,-4.70
2019-02-06T07:08:36.662Z,-4.70
2019-02-06T07:11:08.752Z,-4.69
2019-02-06T07:13:40.858Z,-4.66
2019-02-06T07:16:13.095Z,-4.63
2019-02-06T07:18:45.056Z,-4.58
2019-02-06T07:21:17.100Z,-4.53
2019-02-06T07:23:49.151Z,-4.52
2019-02-06T07:26:21.371Z,-4.49
2019-02-06T07:28:53.587Z,-4.40
2019-02-06T07:31:25.505Z,-4.36
2019-02-06T07:33:57.413Z,-4.31
2019-02-06T07:36:29.520Z,-4.20
2019-02-06T07:39:01.499Z,-4.12
2019-02-06T07:41:35.079Z,-3.89
2019-02-06T07:44:07.133Z,-3.84
2019-02-06T07:46:38.977Z,-3.91
2019-02-06T07:49:12.395Z,-3.92
2019-02-06T07:51:44.579Z,-3.91
2019-02-06T07:54:16.635Z,-3.82
2019-02-06T07:56:49.283Z,-3.74
2019-02-06T07:59:21.384Z,-3.70
2019-02-06T08:01:53.792Z,-3.69
2019-02-06T08:04:25.759Z,-3.68
2019-02-06T08:06:57.793Z,-3.67
2019-02-06T08:09:29.862Z,-3.64
2019-02-06T08:12:02.114Z,-3.63
2019-02-06T08:14:34.149Z,-3.56
2019-02-06T08:17:06.292Z,-3.55
2019-02-06T08:19:38.234Z,-3.51
2019-02-06T08:22:12.179Z,-3.48
2019-02-06T08:24:44.493Z,-3.49
2019-02-06T08:27:16.430Z,-3.47
2019-02-06T08:29:48.633Z,-3.39
2019-02-06T08:32:20.559Z,-3.41
2019-02-06T08:34:52.509Z,-3.33
2019-02-06T08:37:24.444Z,-3.29
2019-02-06T08:39:56.461Z,-3.27
2019-02-06T08:42:28.596Z,-3.17
2019-02-06T08:45:00.465Z,-3.17
2019-02-06T08:47:32.490Z,-3.12
2019-02-06T08:50:05.384Z,-3.08
2019-02-06T08:52:37.647Z,-3.04
2019-02-06T08:55:13.645Z,-3.00
2019-02-06T08:57:45.689Z,-2.99
2019-02-06T09:00:22.513Z,-2.87
2019-02-06T09:02:54.631Z,-2.81
2019-02-06T09:05:26.572Z,-2.77
2019-02-06T09:07:58.600Z,-2.78
2019-02-06T09:10:31.026Z,-2.65
2019-02-06T09:13:03.094Z,-2.51
2019-02-06T09:15:35.118Z,-2.41
2019-02-06T09:18:08.388Z,-2.35
2019-02-06T09:20:40.384Z,-2.31
2019-02-06T09:23:12.354Z,-2.19
2019-02-06T09:25:44.292Z,-2.14
2019-02-06T09:28:16.223Z,-2.10
2019-02-06T09:30:48.565Z,-2.09
2019-02-06T09:33:20.497Z,-1.98
2019-02-06T09:35:52.369Z,-1.92
2019-02-06T09:38:24.233Z,-1.86
2019-02-06T09:40:56.207Z,-1.80
2019-02-06T09:43:28.213Z,-1.76
2019-02-06T09:46:00.356Z,-1.63
2019-02-06T09:48:32.292Z,-1.60
2019-02-06T09:51:04.331Z,-1.51
2019-02-06T09:53:36.261Z,-1.46
2019-02-06T09:56:08.382Z,-1.41
2019-02-06T09:58:40.499Z,-1.32
2019-02-06T10:01:12.473Z,-1.22
2019-02-06T10:03:46.909Z,-1.16
2019-02-06T10:06:18.041Z,-1.15
2019-02-06T10:08:50.367Z,-1.13
2019-02-06T10:11:22.258Z,-1.05
2019-02-06T10:13:54.191Z,-0.94
2019-02-06T10:16:26.151Z,-0.92
2019-02-06T10:18:58.014Z,-0.84
2019-02-06T10:21:30.515Z,-0.75
2019-02-06T10:24:02.442Z,-0.69
2019-02-06T10:26:34.415Z,-0.65
2019-02-06T10:29:06.770Z,-0.54
2019-02-06T10:31:38.967Z,-0.44
2019-02-06T10:34:12.050Z,-0.27
2019-02-06T10:36:44.298Z,-0.17
2019-02-06T10:39:16.249Z,-0.12
2019-02-06T10:41:48.348Z,-0.04
2019-02-06T10:44:20.467Z,0.03
2019-02-06T10:46:52.833Z,0.14
2019-02-06T10:49:25.259Z,0.18
2019-02-06T10:51:57.536Z,0.25
2019-02-06T10:54:29.458Z,0.40
2019-02-06T10:57:01.655Z,0.47
2019-02-06T10:59:34.070Z,0.59
2019-02-06T11:02:06.245Z,0.69
2019-02-06T11:04:38.200Z,0.71
2019-02-06T11:07:11.550Z,0.73
2019-02-06T11:09:46.436Z,0.76
2019-02-06T11:12:17.287Z,0.84
2019-02-06T11:14:49.310Z,0.91
2019-02-06T11:17:21.187Z,1.16
2019-02-06T11:19:53.168Z,1.25
2019-02-06T11:22:25.213Z,1.45
2019-02-06T11:24:57.428Z,1.37
2019-02-06T11:27:29.681Z,1.53
2019-02-06T11:30:01.609Z,1.59
2019-02-06T11:32:34.661Z,1.69
2019-02-06T11:35:07.665Z,1.87
2019-02-06T11:37:39.733Z,1.94
2019-02-06T11:40:15.669Z,1.97
2019-02-06T11:42:47.708Z,2.16
2019-02-06T11:45:26.492Z,2.14
2019-02-06T11:47:58.582Z,2.25
2019-02-06T11:50:40.835Z,2.18
2019-02-06T11:53:22.802Z,2.40
2019-02-06T11:55:56.108Z,2.39
2019-02-06T11:58:28.202Z,2.48
2019-02-06T12:01:25.133Z,2.56
2019-02-06T12:03:57.340Z,2.58
2019-02-06T12:06:29.538Z,2.58
2019-02-06T12:09:01.592Z,2.93
2019-02-06T12:11:34.950Z,2.87
2019-02-06T12:14:06.884Z,2.79
2019-02-06T12:16:39.128Z,2.99
2019-02-06T12:19:11.601Z,2.84
2019-02-06T12:21:43.625Z,3.09
2019-02-06T12:24:15.722Z,3.20
2019-02-06T12:26:47.649Z,3.33
2019-02-06T12:29:19.797Z,3.65
2019-02-06T12:31:51.646Z,3.83
2019-02-06T12:34:23.832Z,3.83
2019-02-06T12:36:55.854Z,4.12
2019-02-06T12:39:27.964Z,3.94
2019-02-06T12:42:00.277Z,3.95
2019-02-06T12:44:32.215Z,4.03
2019-02-06T12:47:04.465Z,3.90
2019-02-06T12:49:36.417Z,3.84
2019-02-06T12:52:08.460Z,4.03
2019-02-06T12:54:40.409Z,4.19
2019-02-06T12:57:12.594Z,4.25
2019-02-06T12:59:44.537Z,4.31
2019-02-06T13:02:16.474Z,4.32
2019-02-06T13:04:48.413Z,4.59
2019-02-06T13:07:20.336Z,4.77
2019-02-06T13:09:52.631Z,4.70
2019-02-06T13:12:27.256Z,4.65
2019-02-06T13:14:58.400Z,4.72
2019-02-06T13:17:30.341Z,4.70
2019-02-06T13:20:02.289Z,5.13
2019-02-06T13:22:34.553Z,5.18
2019-02-06T13:25:07.980Z,4.91
2019-02-06T13:27:40.159Z,5.03
2019-02-06T13:30:17.777Z,5.11
2019-02-06T13:32:50.085Z,5.38
2019-02-06T13:35:21.934Z,5.55
2019-02-06T13:37:53.776Z,5.52
2019-02-06T13:40:27.050Z,5.88
2019-02-06T13:43:00.081Z,6.05
2019-02-06T13:45:39.263Z,6.16
2019-02-06T13:48:12.093Z,6.38
2019-02-06T13:50:44.192Z,6.00
2019-02-06T13:53:16.229Z,6.39
2019-02-06T13:55:48.375Z,6.41
2019-02-06T13:58:20.729Z,6.10
2019-02-06T14:00:52.992Z,6.03
2019-02-06T14:03:24.941Z,6.12
2019-02-06T14:05:56.946Z,6.29
2019-02-06T14:08:29.351Z,6.47
2019-02-06T14:11:01.262Z,6.68
2019-02-06T14:13:33.312Z,6.76
2019-02-06T14:16:06.438Z,6.57
2019-02-06T14:18:38.367Z,6.35
2019-02-06T14:21:10.590Z,6.39
2019-02-06T14:24:15.911Z,6.21
2019-02-06T14:27:24.543Z,6.59
2019-02-06T14:30:45.909Z,6.78
2019-02-06T14:34:19.306Z,6.68
2019-02-06T14:37:42.850Z,6.53
2019-02-06T14:41:08.266Z,6.68
2019-02-06T14:44:39.388Z,6.77
2019-02-06T14:47:31.955Z,7.00
2019-02-06T14:51:04.904Z,7.15
2019-02-06T14:54:24.862Z,7.01
2019-02-06T14:58:12.240Z,6.93
2019-02-06T15:01:24.024Z,6.74
2019-02-06T15:04:48.116Z,6.61
2019-02-06T15:08:42.719Z,6.69
2019-02-06T15:11:40.768Z,6.62
2019-02-06T15:14:56.529Z,6.45
2019-02-06T15:18:06.386Z,6.40
2019-02-06T15:21:36.397Z,6.36
2019-02-06T15:24:55.857Z,6.18
2019-02-06T15:28:33.615Z,6.05
2019-02-06T15:31:50.226Z,5.61
2019-02-06T15:35:29.913Z,5.06
2019-02-06T15:38:38.337Z,4.55
2019-02-06T15:41:41.386Z,4.12
2019-02-06T15:44:48.498Z,3.72
2019-02-06T15:48:10.947Z,3.59
2019-02-06T15:52:07.180Z,3.33
2019-02-06T15:55:13.276Z,3.12
2019-02-06T15:58:41.055Z,2.70
2019-02-06T16:01:56.407Z,2.67
2019-02-06T16:04:57.389Z,2.35
2019-02-06T16:08:37.194Z,2.37
2019-02-06T16:11:55.122Z,2.23
2019-02-06T16:14:52.103Z,2.00
2019-02-06T16:18:07.513Z,1.85
2019-02-06T16:21:34.900Z,1.74
2019-02-06T16:24:48.608Z,1.63
2019-02-06T16:27:57.375Z,1.42
2019-02-06T16:31:20.529Z,1.34
2019-02-06T16:34:37.931Z,1.22
2019-02-06T16:38:00.135Z,1.13
2019-02-06T16:41:31.819Z,0.95
2019-02-06T16:44:56.379Z,0.89
2019-02-06T16:48:06.971Z,0.47
2019-02-06T16:51:38.133Z,0.52
2019-02-06T16:55:22.496Z,0.12
2019-02-06T16:58:48.725Z,0.00
2019-02-06T17:02:12.676Z,0.04
2019-02-06T17:05:45.071Z,0.03
2019-02-06T17:09:44.884Z,0.03
2019-02-06T17:12:59.392Z,-0.02
2019-02-06T17:16:37.873Z,0.08
2019-02-06T17:19:56.786Z,-0.29
2019-02-06T17:23:16.452Z,-0.40
2019-02-06T17:26:29.168Z,-0.68
2019-02-06T17:29:26.892Z,-0.81
2019-02-06T17:33:06.011Z,-0.76
2019-02-06T17:35:58.581Z,-0.68
2019-02-06T17:39:00.854Z,-0.82
2019-02-06T17:42:03.543Z,-1.44
2019-02-06T17:45:29.212Z,-1.61
2019-02-06T17:48:49.788Z,-1.47
2019-02-06T17:52:20.388Z,-1.24
2019-02-06T17:55:27.512Z,-1.26
2019-02-06T17:58:02.824Z,-1.18
2019-02-06T18:00:57.622Z,-1.28
2019-02-06T18:03:37.874Z,-1.53
2019-02-06T18:06:10.078Z,-1.35
2019-02-06T18:08:42.251Z,-1.62
2019-02-06T18:11:14.430Z,-1.43
2019-02-06T18:13:46.586Z,-1.37
2019-02-06T18:16:21.359Z,-1.47
2019-02-06T18:18:52.739Z,-1.64
2019-02-06T18:21:24.795Z,-1.97
2019-02-06T18:23:57.020Z,-1.90
2019-02-06T18:26:29.492Z,-1.85
2019-02-06T18:29:01.576Z,-1.91
2019-02-06T18:31:33.524Z,-1.98
2019-02-06T18:34:08.799Z,-1.97
2019-02-06T18:36:40.755Z,-1.88
2019-02-06T18:39:14.707Z,-1.84
2019-02-06T18:41:47.006Z,-1.74
2019-02-06T18:44:19.098Z,-1.97
2019-02-06T18:46:54.935Z,-2.05
2019-02-06T18:49:27.544Z,-1.98
2019-02-06T18:52:00.034Z,-2.09
2019-02-06T18:54:32.341Z,-1.71
2019-02-06T18:57:04.407Z,-1.60
2019-02-06T18:59:36.408Z,-1.63
2019-02-06T19:02:08.829Z,-1.61
2019-02-06T19:04:40.908Z,-1.94
2019-02-06T19:07:13.205Z,-1.98
2019-02-06T19:09:45.638Z,-2.05
2019-02-06T19:12:17.640Z,-1.96
2019-02-06T19:14:49.716Z,-2.16
2019-02-06T19:17:21.717Z,-2.25
2019-02-06T19:19:53.685Z,-2.23
2019-02-06T19:22:25.636Z,-2.39
2019-02-06T19:24:57.601Z,-2.49
2019-02-06T19:27:29.580Z,-2.49
2019-02-06T19:30:01.573Z,-2.57
2019-02-06T19:32:33.878Z,-2.44
2019-02-06T19:35:07.034Z,-2.51
2019-02-06T19:37:39.203Z,-2.68
2019-02-06T19:40:12.394Z,-2.64
2019-02-06T19:42:44.308Z,-2.66
2019-02-06T19:45:16.542Z,-2.77
2019-02-06T19:47:48.639Z,-2.85
2019-02-06T19:50:27.589Z,-2.87
2019-02-06T19:52:59.972Z,-2.99
2019-02-06T19:55:33.090Z,-3.01
2019-02-06T19:58:05.646Z,-3.10
2019-02-06T20:00:38.084Z,-3.25
2019-02-06T20:03:10.578Z,-3.22
2019-02-06T20:05:42.646Z,-3.15
2019-02-06T20:08:14.958Z,-3.30
2019-02-06T20:10:49.103Z,-3.47
2019-02-06T20:13:21.023Z,-3.71
2019-02-06T20:15:53.183Z,-3.73
2019-02-06T20:18:25.200Z,-3.71
2019-02-06T20:20:57.162Z,-3.52
2019-02-06T20:23:29.412Z,-3.58
2019-02-06T20:26:01.375Z,-3.52
2019-02-06T20:28:33.356Z,-3.13
2019-02-06T20:31:05.662Z,-3.27
2019-02-06T20:33:38.601Z,-3.35
2019-02-06T20:36:10.821Z,-3.22
2019-02-06T20:38:42.787Z,-3.11
2019-02-06T20:41:14.882Z,-3.17
2019-02-06T20:43:47.375Z,-3.28
2019-02-06T20:46:19.406Z,-3.28
2019-02-06T20:48:51.289Z,-3.35
2019-02-06T20:51:23.288Z,-3.27
2019-02-06T20:53:55.275Z,-3.28
2019-02-06T20:56:27.317Z,-3.13
2019-02-06T20:58:59.311Z,-3.17
2019-02-06T21:01:31.217Z,-3.30
2019-02-06T21:04:03.310Z,-3.13
2019-02-06T21:06:35.331Z,-3.26
2019-02-06T21:09:14.878Z,-3.01
2019-02-06T21:11:46.918Z,-2.88
2019-02-06T21:14:18.953Z,-2.85
2019-02-06T21:16:50.840Z,-2.92
2019-02-06T21:19:22.900Z,-2.91
2019-02-06T21:21:55.112Z,-2.99
2019-02-06T21:24:27.089Z,-3.29
2019-02-06T21:26:59.052Z,-3.36
2019-02-06T21:29:31.263Z,-3.40
2019-02-06T21:32:03.204Z,-3.50
2019-02-06T21:34:35.708Z,-3.56
2019-02-06T21:37:07.669Z,-3.64
2019-02-06T21:39:39.597Z,-3.69
2019-02-06T21:42:11.576Z,-3.93
2019-02-06T21:44:43.553Z,-3.55
2019-02-06T21:47:15.728Z,-4.01
2019-02-06T21:49:47.723Z,-4.06
2019-02-06T21:52:19.729Z,-4.04
2019-02-06T21:54:52.118Z,-3.93
2019-02-06T21:57:24.001Z,-3.96
2019-02-06T21:59:56.437Z,-3.79
2019-02-06T22:02:28.640Z,-3.77
2019-02-06T22:05:00.598Z,-3.53
2019-02-06T22:07:32.425Z,-3.35
2019-02-06T22:10:05.179Z,-3.30
2019-02-06T22:12:37.750Z,-3.28
2019-02-06T22:15:24.002Z,-3.47
2019-02-06T22:17:56.042Z,-3.55
2019-02-06T22:20:28.626Z,-3.47
2019-02-06T22:23:00.913Z,-3.44
2019-02-06T22:25:33.049Z,-3.50
2019-02-06T22:28:05.013Z,-3.62
2019-02-06T22:30:37.053Z,-3.63
2019-02-06T22:33:09.553Z,-3.52
2019-02-06T22:35:41.761Z,-3.64
2019-02-06T22:38:14.507Z,-3.57
2019-02-06T22:40:46.927Z,-3.41
2019-02-06T22:43:21.256Z,-3.54
2019-02-06T22:45:53.418Z,-3.48
2019-02-06T22:48:25.383Z,-3.55
2019-02-06T22:50:57.314Z,-3.76
2019-02-06T22:53:29.261Z,-3.57
2019-02-06T22:56:01.160Z,-3.49
2019-02-06T22:58:33.931Z,-3.65
2019-02-06T23:01:40.448Z,-3.50
2019-02-06T23:04:12.394Z,-3.53
2019-02-06T23:06:44.536Z,-3.85
2019-02-06T23:09:16.736Z,-3.72
2019-02-06T23:11:48.923Z,-3.70
2019-02-06T23:14:20.868Z,-3.90
2019-02-06T23:16:52.730Z,-3.74
2019-02-06T23:19:24.911Z,-3.88
2019-02-06T23:21:56.883Z,-3.96
2019-02-06T23:24:28.922Z,-3.91
2019-02-06T23:27:00.842Z,-3.95
2019-02-06T23:29:32.886Z,-4.08
2019-02-06T23:32:05.083Z,-4.14
2019-02-06T23:34:37.205Z,-4.17
2019-02-06T23:37:11.409Z,-4.08
2019-02-06T23:39:42.801Z,-4.11
2019-02-06T23:42:14.923Z,-4.09
2019-02-06T23:44:47.048Z,-4.24
2019-02-06T23:47:18.973Z,-4.23
2019-02-06T23:49:51.739Z,-4.33
2019-02-06T23:52:23.935Z,-4.36
2019-02-06T23:54:56.400Z,-4.32
2019-02-06T23:57:28.267Z,-4.33
